sensor_id;sensor_type;location;lat;lon;timestamp;pressure;altitude;pressure_sealevel;temperature;humidity
59170;BME280;52474;52.236;5.114;2023-07-20T00:01:47;101504.44;;;16.60;100.00
59170;BME280;52474;52.236;5.114;2023-07-20T00:04:13;101523.22;;;16.68;100.00
59170;BME280;52474;52.236;5.114;2023-07-20T00:06:39;101506.06;;;16.52;100.00
59170;BME280;52474;52.236;5.114;2023-07-20T00:09:08;101519.66;;;16.59;100.00
59170;BME280;52474;52.236;5.114;2023-07-20T00:11:37;101518.50;;;16.62;100.00
59170;BME280;52474;52.236;5.114;2023-07-20T00:14:06;101530.56;;;16.66;100.00
59170;BME280;52474;52.236;5.114;2023-07-20T00:16:32;101530.41;;;16.67;100.00
59170;BME280;52474;52.236;5.114;2023-07-20T00:18:58;101516.66;;;16.62;100.00
59170;BME280;52474;52.236;5.114;2023-07-20T00:21:25;101517.44;;;16.55;100.00
59170;BME280;52474;52.236;5.114;2023-07-20T00:23:51;101510.78;;;16.41;100.00
59170;BME280;52474;52.236;5.114;2023-07-20T00:26:16;101529.19;;;16.44;100.00
59170;BME280;52474;52.236;5.114;2023-07-20T00:28:43;101512.56;;;16.32;100.00
59170;BME280;52474;52.236;5.114;2023-07-20T00:31:09;101526.31;;;16.37;100.00
59170;BME280;52474;52.236;5.114;2023-07-20T00:33:36;101528.41;;;16.34;100.00
59170;BME280;52474;52.236;5.114;2023-07-20T00:36:01;101530.25;;;16.33;100.00
59170;BME280;52474;52.236;5.114;2023-07-20T00:38:27;101528.03;;;16.28;100.00
59170;BME280;52474;52.236;5.114;2023-07-20T00:40:53;101518.09;;;16.21;100.00
59170;BME280;52474;52.236;5.114;2023-07-20T00:43:19;101524.47;;;16.20;100.00
59170;BME280;52474;52.236;5.114;2023-07-20T00:45:45;101516.34;;;16.12;100.00
59170;BME280;52474;52.236;5.114;2023-07-20T00:48:11;101522.94;;;16.17;100.00
59170;BME280;52474;52.236;5.114;2023-07-20T00:50:37;101488.31;;;15.98;100.00
59170;BME280;52474;52.236;5.114;2023-07-20T00:53:05;101518.88;;;16.13;100.00
59170;BME280;52474;52.236;5.114;2023-07-20T00:55:32;101512.06;;;16.01;100.00
59170;BME280;52474;52.236;5.114;2023-07-20T00:57:58;101516.78;;;16.07;100.00
59170;BME280;52474;52.236;5.114;2023-07-20T01:00:24;101516.69;;;15.99;100.00
59170;BME280;52474;52.236;5.114;2023-07-20T01:02:51;101505.09;;;15.90;100.00
59170;BME280;52474;52.236;5.114;2023-07-20T01:05:17;101509.88;;;15.86;100.00
59170;BME280;52474;52.236;5.114;2023-07-20T01:07:51;101522.34;;;15.96;100.00
59170;BME280;52474;52.236;5.114;2023-07-20T01:10:31;101523.09;;;15.88;100.00
59170;BME280;52474;52.236;5.114;2023-07-20T01:13:00;101521.56;;;15.85;100.00
59170;BME280;52474;52.236;5.114;2023-07-20T01:15:27;101516.66;;;15.81;100.00
59170;BME280;52474;52.236;5.114;2023-07-20T01:17:53;101516.97;;;15.78;100.00
59170;BME280;52474;52.236;5.114;2023-07-20T01:20:20;101527.50;;;15.79;100.00
59170;BME280;52474;52.236;5.114;2023-07-20T01:27:16;101516.03;;;15.59;100.00
59170;BME280;52474;52.236;5.114;2023-07-20T01:31:41;101523.22;;;15.59;100.00
59170;BME280;52474;52.236;5.114;2023-07-20T01:34:08;101518.00;;;15.57;100.00
59170;BME280;52474;52.236;5.114;2023-07-20T01:36:38;101515.50;;;15.56;100.00
59170;BME280;52474;52.236;5.114;2023-07-20T01:39:06;101530.09;;;15.61;100.00
59170;BME280;52474;52.236;5.114;2023-07-20T01:41:32;101523.25;;;15.49;100.00
59170;BME280;52474;52.236;5.114;2023-07-20T01:43:58;101529.81;;;15.55;100.00
59170;BME280;52474;52.236;5.114;2023-07-20T01:46:26;101538.13;;;15.52;100.00
59170;BME280;52474;52.236;5.114;2023-07-20T01:48:54;101530.00;;;15.53;100.00
59170;BME280;52474;52.236;5.114;2023-07-20T01:51:19;101532.19;;;15.58;100.00
59170;BME280;52474;52.236;5.114;2023-07-20T01:53:47;101512.16;;;15.44;100.00
59170;BME280;52474;52.236;5.114;2023-07-20T01:56:13;101528.59;;;15.49;100.00
59170;BME280;52474;52.236;5.114;2023-07-20T01:58:39;101518.91;;;15.48;100.00
59170;BME280;52474;52.236;5.114;2023-07-20T02:01:05;101526.75;;;15.50;100.00
59170;BME280;52474;52.236;5.114;2023-07-20T02:03:31;101536.72;;;15.48;100.00
59170;BME280;52474;52.236;5.114;2023-07-20T02:05:56;101519.22;;;15.35;100.00
59170;BME280;52474;52.236;5.114;2023-07-20T02:08:22;101525.81;;;15.41;100.00
59170;BME280;52474;52.236;5.114;2023-07-20T02:10:49;101523.00;;;15.33;100.00
59170;BME280;52474;52.236;5.114;2023-07-20T02:13:15;101515.84;;;15.33;100.00
59170;BME280;52474;52.236;5.114;2023-07-20T02:15:41;101528.22;;;15.34;100.00
59170;BME280;52474;52.236;5.114;2023-07-20T02:18:08;101525.84;;;15.31;100.00
59170;BME280;52474;52.236;5.114;2023-07-20T02:20:34;101531.44;;;15.28;100.00
59170;BME280;52474;52.236;5.114;2023-07-20T02:23:00;101521.50;;;15.20;100.00
59170;BME280;52474;52.236;5.114;2023-07-20T02:25:26;101532.88;;;15.22;100.00
59170;BME280;52474;52.236;5.114;2023-07-20T02:27:52;101534.00;;;15.20;100.00
59170;BME280;52474;52.236;5.114;2023-07-20T02:30:18;101530.81;;;15.16;100.00
59170;BME280;52474;52.236;5.114;2023-07-20T02:32:43;101517.31;;;15.08;100.00
59170;BME280;52474;52.236;5.114;2023-07-20T02:35:17;101540.06;;;15.12;100.00
59170;BME280;52474;52.236;5.114;2023-07-20T02:37:43;101528.69;;;15.10;100.00
59170;BME280;52474;52.236;5.114;2023-07-20T02:40:09;101540.63;;;15.06;100.00
59170;BME280;52474;52.236;5.114;2023-07-20T02:42:35;101535.34;;;14.96;100.00
59170;BME280;52474;52.236;5.114;2023-07-20T02:45:04;101535.63;;;14.74;100.00
59170;BME280;52474;52.236;5.114;2023-07-20T02:47:32;101529.41;;;14.44;100.00
59170;BME280;52474;52.236;5.114;2023-07-20T02:49:57;101543.56;;;14.45;100.00
59170;BME280;52474;52.236;5.114;2023-07-20T02:52:23;101548.94;;;14.35;100.00
59170;BME280;52474;52.236;5.114;2023-07-20T02:54:49;101547.63;;;14.29;100.00
59170;BME280;52474;52.236;5.114;2023-07-20T02:57:15;101552.00;;;14.30;100.00
59170;BME280;52474;52.236;5.114;2023-07-20T02:59:40;101548.75;;;14.36;100.00
59170;BME280;52474;52.236;5.114;2023-07-20T03:02:06;101546.53;;;14.42;100.00
59170;BME280;52474;52.236;5.114;2023-07-20T03:04:35;101560.84;;;14.50;100.00
59170;BME280;52474;52.236;5.114;2023-07-20T03:07:05;101560.59;;;14.53;100.00
59170;BME280;52474;52.236;5.114;2023-07-20T03:09:33;101558.91;;;14.52;100.00
59170;BME280;52474;52.236;5.114;2023-07-20T03:11:58;101562.41;;;14.53;100.00
59170;BME280;52474;52.236;5.114;2023-07-20T03:14:25;101560.47;;;14.55;100.00
59170;BME280;52474;52.236;5.114;2023-07-20T03:16:51;101560.69;;;14.52;100.00
59170;BME280;52474;52.236;5.114;2023-07-20T03:19:17;101562.81;;;14.48;100.00
59170;BME280;52474;52.236;5.114;2023-07-20T03:21:43;101562.94;;;14.47;100.00
59170;BME280;52474;52.236;5.114;2023-07-20T03:24:08;101564.22;;;14.43;100.00
59170;BME280;52474;52.236;5.114;2023-07-20T03:26:35;101557.47;;;14.38;100.00
59170;BME280;52474;52.236;5.114;2023-07-20T03:29:01;101574.16;;;14.41;100.00
59170;BME280;52474;52.236;5.114;2023-07-20T03:31:27;101580.47;;;14.39;100.00
59170;BME280;52474;52.236;5.114;2023-07-20T03:33:53;101574.59;;;14.36;100.00
59170;BME280;52474;52.236;5.114;2023-07-20T03:36:19;101580.03;;;14.34;100.00
59170;BME280;52474;52.236;5.114;2023-07-20T03:38:45;101553.34;;;14.15;100.00
59170;BME280;52474;52.236;5.114;2023-07-20T03:41:10;101568.25;;;14.27;100.00
59170;BME280;52474;52.236;5.114;2023-07-20T03:43:37;101568.53;;;14.24;100.00
59170;BME280;52474;52.236;5.114;2023-07-20T03:46:03;101556.00;;;14.15;100.00
59170;BME280;52474;52.236;5.114;2023-07-20T03:48:32;101553.63;;;14.12;100.00
59170;BME280;52474;52.236;5.114;2023-07-20T03:50:58;101575.81;;;14.22;100.00
59170;BME280;52474;52.236;5.114;2023-07-20T03:53:26;101565.56;;;14.17;100.00
59170;BME280;52474;52.236;5.114;2023-07-20T03:55:53;101572.72;;;14.17;100.00
59170;BME280;52474;52.236;5.114;2023-07-20T03:58:19;101586.34;;;14.24;100.00
59170;BME280;52474;52.236;5.114;2023-07-20T04:00:49;101583.53;;;14.25;100.00
59170;BME280;52474;52.236;5.114;2023-07-20T04:03:17;101589.28;;;14.21;100.00
59170;BME280;52474;52.236;5.114;2023-07-20T04:05:43;101588.56;;;14.18;100.00
59170;BME280;52474;52.236;5.114;2023-07-20T04:08:09;101582.81;;;14.13;100.00
59170;BME280;52474;52.236;5.114;2023-07-20T04:10:37;101585.75;;;14.10;100.00
59170;BME280;52474;52.236;5.114;2023-07-20T04:13:03;101591.75;;;14.12;100.00
59170;BME280;52474;52.236;5.114;2023-07-20T04:15:29;101581.06;;;14.03;100.00
59170;BME280;52474;52.236;5.114;2023-07-20T04:17:55;101569.75;;;14.01;100.00
59170;BME280;52474;52.236;5.114;2023-07-20T04:20:22;101586.16;;;14.06;100.00
59170;BME280;52474;52.236;5.114;2023-07-20T04:22:48;101579.81;;;13.97;100.00
59170;BME280;52474;52.236;5.114;2023-07-20T04:25:15;101589.22;;;14.01;100.00
59170;BME280;52474;52.236;5.114;2023-07-20T04:27:41;101597.66;;;14.06;100.00
59170;BME280;52474;52.236;5.114;2023-07-20T04:30:08;101605.50;;;14.08;100.00
59170;BME280;52474;52.236;5.114;2023-07-20T04:32:34;101587.66;;;13.99;100.00
59170;BME280;52474;52.236;5.114;2023-07-20T04:35:06;101604.91;;;14.04;100.00
59170;BME280;52474;52.236;5.114;2023-07-20T04:37:34;101601.97;;;14.07;100.00
59170;BME280;52474;52.236;5.114;2023-07-20T04:40:01;101603.41;;;14.11;100.00
59170;BME280;52474;52.236;5.114;2023-07-20T04:42:27;101601.59;;;14.12;100.00
59170;BME280;52474;52.236;5.114;2023-07-20T04:44:53;101579.28;;;14.03;100.00
59170;BME280;52474;52.236;5.114;2023-07-20T04:47:19;101607.09;;;14.20;100.00
59170;BME280;52474;52.236;5.114;2023-07-20T04:49:46;101612.56;;;14.28;100.00
59170;BME280;52474;52.236;5.114;2023-07-20T04:52:12;101605.97;;;14.23;100.00
59170;BME280;52474;52.236;5.114;2023-07-20T04:54:38;101612.69;;;14.27;100.00
59170;BME280;52474;52.236;5.114;2023-07-20T04:57:11;101605.25;;;14.21;100.00
59170;BME280;52474;52.236;5.114;2023-07-20T04:59:42;101620.28;;;14.31;100.00
59170;BME280;52474;52.236;5.114;2023-07-20T05:02:08;101600.38;;;14.26;100.00
59170;BME280;52474;52.236;5.114;2023-07-20T05:04:34;101618.88;;;14.37;100.00
59170;BME280;52474;52.236;5.114;2023-07-20T05:07:00;101596.31;;;14.31;100.00
59170;BME280;52474;52.236;5.114;2023-07-20T05:09:26;101607.81;;;14.42;100.00
59170;BME280;52474;52.236;5.114;2023-07-20T05:11:52;101612.88;;;14.45;100.00
59170;BME280;52474;52.236;5.114;2023-07-20T05:14:17;101611.63;;;14.49;100.00
59170;BME280;52474;52.236;5.114;2023-07-20T05:16:43;101612.47;;;14.49;100.00
59170;BME280;52474;52.236;5.114;2023-07-20T05:19:09;101614.16;;;14.50;100.00
59170;BME280;52474;52.236;5.114;2023-07-20T05:21:35;101604.19;;;14.43;100.00
59170;BME280;52474;52.236;5.114;2023-07-20T05:24:01;101627.13;;;14.55;100.00
59170;BME280;52474;52.236;5.114;2023-07-20T05:26:27;101602.66;;;14.50;100.00
59170;BME280;52474;52.236;5.114;2023-07-20T05:28:53;101605.63;;;14.56;100.00
59170;BME280;52474;52.236;5.114;2023-07-20T05:31:18;101618.53;;;14.61;100.00
59170;BME280;52474;52.236;5.114;2023-07-20T05:33:44;101616.72;;;14.71;100.00
59170;BME280;52474;52.236;5.114;2023-07-20T05:36:10;101624.31;;;14.76;100.00
59170;BME280;52474;52.236;5.114;2023-07-20T05:38:35;101626.56;;;14.80;100.00
59170;BME280;52474;52.236;5.114;2023-07-20T05:41:01;101604.25;;;14.72;100.00
59170;BME280;52474;52.236;5.114;2023-07-20T05:43:27;101628.94;;;14.84;100.00
59170;BME280;52474;52.236;5.114;2023-07-20T05:45:53;101618.03;;;14.87;100.00
59170;BME280;52474;52.236;5.114;2023-07-20T05:48:18;101602.69;;;14.79;100.00
59170;BME280;52474;52.236;5.114;2023-07-20T05:50:44;101611.97;;;14.94;100.00
59170;BME280;52474;52.236;5.114;2023-07-20T05:53:10;101589.38;;;14.79;100.00
59170;BME280;52474;52.236;5.114;2023-07-20T05:55:36;101605.09;;;14.92;100.00
59170;BME280;52474;52.236;5.114;2023-07-20T05:58:01;101609.16;;;14.96;100.00
59170;BME280;52474;52.236;5.114;2023-07-20T06:00:27;101627.69;;;15.07;100.00
59170;BME280;52474;52.236;5.114;2023-07-20T06:02:53;101615.06;;;15.09;100.00
59170;BME280;52474;52.236;5.114;2023-07-20T06:05:21;101594.97;;;15.05;100.00
59170;BME280;52474;52.236;5.114;2023-07-20T06:07:47;101615.91;;;15.19;100.00
59170;BME280;52474;52.236;5.114;2023-07-20T06:10:13;101617.56;;;15.20;100.00
59170;BME280;52474;52.236;5.114;2023-07-20T06:12:38;101613.94;;;15.21;100.00
59170;BME280;52474;52.236;5.114;2023-07-20T06:15:05;101605.66;;;15.15;100.00
59170;BME280;52474;52.236;5.114;2023-07-20T06:17:32;101630.06;;;15.30;100.00
59170;BME280;52474;52.236;5.114;2023-07-20T06:19:58;101623.31;;;15.35;100.00
59170;BME280;52474;52.236;5.114;2023-07-20T06:22:23;101610.94;;;15.34;100.00
59170;BME280;52474;52.236;5.114;2023-07-20T06:24:49;101614.00;;;15.49;100.00
59170;BME280;52474;52.236;5.114;2023-07-20T06:27:15;101627.00;;;15.81;100.00
59170;BME280;52474;52.236;5.114;2023-07-20T06:29:41;101610.50;;;15.96;100.00
59170;BME280;52474;52.236;5.114;2023-07-20T06:32:07;101625.22;;;16.37;100.00
59170;BME280;52474;52.236;5.114;2023-07-20T06:34:33;101621.59;;;16.92;100.00
59170;BME280;52474;52.236;5.114;2023-07-20T06:37:03;101618.91;;;17.54;100.00
59170;BME280;52474;52.236;5.114;2023-07-20T06:39:29;101596.00;;;17.86;100.00
59170;BME280;52474;52.236;5.114;2023-07-20T06:41:55;101616.47;;;18.37;100.00
59170;BME280;52474;52.236;5.114;2023-07-20T06:44:20;101612.13;;;18.53;100.00
59170;BME280;52474;52.236;5.114;2023-07-20T06:46:47;101614.25;;;19.16;100.00
59170;BME280;52474;52.236;5.114;2023-07-20T06:49:25;101635.34;;;19.60;100.00
59170;BME280;52474;52.236;5.114;2023-07-20T06:51:51;101624.91;;;19.82;100.00
59170;BME280;52474;52.236;5.114;2023-07-20T06:54:17;101613.81;;;20.24;100.00
59170;BME280;52474;52.236;5.114;2023-07-20T06:56:42;101625.25;;;20.57;100.00
59170;BME280;52474;52.236;5.114;2023-07-20T06:59:08;101630.84;;;20.48;100.00
59170;BME280;52474;52.236;5.114;2023-07-20T07:01:34;101631.31;;;20.83;100.00
59170;BME280;52474;52.236;5.114;2023-07-20T07:03:59;101632.25;;;21.13;100.00
59170;BME280;52474;52.236;5.114;2023-07-20T07:06:25;101631.31;;;21.43;100.00
59170;BME280;52474;52.236;5.114;2023-07-20T07:08:53;101630.78;;;21.78;100.00
59170;BME280;52474;52.236;5.114;2023-07-20T07:11:19;101634.63;;;21.98;100.00
59170;BME280;52474;52.236;5.114;2023-07-20T07:13:45;101603.53;;;22.02;100.00
59170;BME280;52474;52.236;5.114;2023-07-20T07:16:12;101633.78;;;22.27;100.00
59170;BME280;52474;52.236;5.114;2023-07-20T07:18:40;101623.91;;;22.56;100.00
59170;BME280;52474;52.236;5.114;2023-07-20T07:21:05;101630.38;;;22.98;100.00
59170;BME280;52474;52.236;5.114;2023-07-20T07:23:31;101624.78;;;23.00;100.00
59170;BME280;52474;52.236;5.114;2023-07-20T07:25:57;101620.69;;;23.04;100.00
59170;BME280;52474;52.236;5.114;2023-07-20T07:28:22;101626.41;;;23.44;100.00
59170;BME280;52474;52.236;5.114;2023-07-20T07:30:48;101623.06;;;23.42;100.00
59170;BME280;52474;52.236;5.114;2023-07-20T07:33:14;101624.25;;;23.67;100.00
59170;BME280;52474;52.236;5.114;2023-07-20T07:35:39;101615.38;;;23.73;100.00
59170;BME280;52474;52.236;5.114;2023-07-20T07:38:05;101619.59;;;23.83;100.00
59170;BME280;52474;52.236;5.114;2023-07-20T07:40:32;101615.50;;;23.65;100.00
59170;BME280;52474;52.236;5.114;2023-07-20T07:42:57;101625.63;;;23.78;100.00
59170;BME280;52474;52.236;5.114;2023-07-20T07:45:23;101625.38;;;24.21;100.00
59170;BME280;52474;52.236;5.114;2023-07-20T07:47:49;101626.44;;;24.27;100.00
59170;BME280;52474;52.236;5.114;2023-07-20T07:50:15;101631.84;;;24.27;100.00
59170;BME280;52474;52.236;5.114;2023-07-20T07:52:40;101614.22;;;24.44;100.00
59170;BME280;52474;52.236;5.114;2023-07-20T07:55:06;101635.09;;;24.50;100.00
59170;BME280;52474;52.236;5.114;2023-07-20T07:57:32;101634.47;;;24.00;100.00
59170;BME280;52474;52.236;5.114;2023-07-20T07:59:57;101634.94;;;24.72;100.00
59170;BME280;52474;52.236;5.114;2023-07-20T08:02:23;101631.22;;;24.93;100.00
59170;BME280;52474;52.236;5.114;2023-07-20T08:04:48;101637.31;;;25.21;100.00
59170;BME280;52474;52.236;5.114;2023-07-20T08:07:17;101645.03;;;25.38;100.00
59170;BME280;52474;52.236;5.114;2023-07-20T08:09:43;101624.59;;;25.35;100.00
59170;BME280;52474;52.236;5.114;2023-07-20T08:12:09;101635.81;;;25.65;100.00
59170;BME280;52474;52.236;5.114;2023-07-20T08:14:35;101631.56;;;25.96;100.00
59170;BME280;52474;52.236;5.114;2023-07-20T08:17:00;101636.59;;;25.92;100.00
59170;BME280;52474;52.236;5.114;2023-07-20T08:19:26;101621.13;;;26.00;100.00
59170;BME280;52474;52.236;5.114;2023-07-20T08:21:52;101630.16;;;25.87;100.00
59170;BME280;52474;52.236;5.114;2023-07-20T08:24:17;101632.53;;;26.22;100.00
59170;BME280;52474;52.236;5.114;2023-07-20T08:26:43;101630.16;;;26.39;100.00
59170;BME280;52474;52.236;5.114;2023-07-20T08:29:08;101622.59;;;26.41;100.00
59170;BME280;52474;52.236;5.114;2023-07-20T08:31:34;101639.94;;;26.40;100.00
59170;BME280;52474;52.236;5.114;2023-07-20T08:34:00;101639.41;;;26.18;100.00
59170;BME280;52474;52.236;5.114;2023-07-20T08:36:25;101635.22;;;26.22;100.00
59170;BME280;52474;52.236;5.114;2023-07-20T08:38:52;101633.69;;;25.74;100.00
59170;BME280;52474;52.236;5.114;2023-07-20T08:41:18;101639.22;;;26.12;100.00
59170;BME280;52474;52.236;5.114;2023-07-20T08:43:46;101639.25;;;26.58;100.00
59170;BME280;52474;52.236;5.114;2023-07-20T08:46:12;101627.91;;;26.22;100.00
59170;BME280;52474;52.236;5.114;2023-07-20T08:48:41;101645.00;;;26.36;100.00
59170;BME280;52474;52.236;5.114;2023-07-20T08:51:09;101636.56;;;26.51;100.00
59170;BME280;52474;52.236;5.114;2023-07-20T08:53:36;101639.34;;;26.31;100.00
59170;BME280;52474;52.236;5.114;2023-07-20T08:56:02;101635.94;;;26.49;100.00
59170;BME280;52474;52.236;5.114;2023-07-20T08:58:29;101640.16;;;26.76;100.00
59170;BME280;52474;52.236;5.114;2023-07-20T09:00:55;101643.97;;;27.01;100.00
59170;BME280;52474;52.236;5.114;2023-07-20T09:03:21;101639.91;;;27.10;100.00
59170;BME280;52474;52.236;5.114;2023-07-20T09:05:47;101628.69;;;26.99;100.00
59170;BME280;52474;52.236;5.114;2023-07-20T09:08:12;101625.78;;;27.26;100.00
59170;BME280;52474;52.236;5.114;2023-07-20T09:10:39;101635.13;;;27.37;100.00
59170;BME280;52474;52.236;5.114;2023-07-20T09:13:04;101631.75;;;27.60;100.00
59170;BME280;52474;52.236;5.114;2023-07-20T09:15:30;101623.84;;;27.33;100.00
59170;BME280;52474;52.236;5.114;2023-07-20T09:17:56;101623.63;;;27.35;100.00
59170;BME280;52474;52.236;5.114;2023-07-20T09:20:22;101628.56;;;27.63;100.00
59170;BME280;52474;52.236;5.114;2023-07-20T09:22:48;101629.91;;;27.35;100.00
59170;BME280;52474;52.236;5.114;2023-07-20T09:25:17;101618.06;;;26.73;100.00
59170;BME280;52474;52.236;5.114;2023-07-20T09:27:44;101632.41;;;26.80;100.00
59170;BME280;52474;52.236;5.114;2023-07-20T09:30:11;101630.78;;;26.72;100.00
59170;BME280;52474;52.236;5.114;2023-07-20T09:32:40;101623.50;;;26.28;100.00
59170;BME280;52474;52.236;5.114;2023-07-20T09:35:12;101632.34;;;26.17;100.00
59170;BME280;52474;52.236;5.114;2023-07-20T09:37:39;101625.53;;;25.87;100.00
59170;BME280;52474;52.236;5.114;2023-07-20T09:40:06;101612.63;;;26.98;100.00
59170;BME280;52474;52.236;5.114;2023-07-20T09:42:35;101627.44;;;27.52;100.00
59170;BME280;52474;52.236;5.114;2023-07-20T09:45:02;101625.78;;;27.26;100.00
59170;BME280;52474;52.236;5.114;2023-07-20T09:47:28;101634.56;;;27.03;100.00
59170;BME280;52474;52.236;5.114;2023-07-20T09:49:58;101606.59;;;27.21;100.00
59170;BME280;52474;52.236;5.114;2023-07-20T09:52:25;101620.09;;;27.71;100.00
59170;BME280;52474;52.236;5.114;2023-07-20T09:54:51;101612.81;;;27.28;100.00
59170;BME280;52474;52.236;5.114;2023-07-20T09:57:17;101628.34;;;27.21;100.00
59170;BME280;52474;52.236;5.114;2023-07-20T09:59:43;101615.84;;;27.38;100.00
59170;BME280;52474;52.236;5.114;2023-07-20T10:02:25;101613.94;;;27.64;100.00
59170;BME280;52474;52.236;5.114;2023-07-20T10:04:53;101611.00;;;28.51;100.00
59170;BME280;52474;52.236;5.114;2023-07-20T10:07:21;101613.91;;;28.19;100.00
59170;BME280;52474;52.236;5.114;2023-07-20T10:09:50;101607.38;;;28.39;100.00
59170;BME280;52474;52.236;5.114;2023-07-20T10:12:17;101617.94;;;27.98;100.00
59170;BME280;52474;52.236;5.114;2023-07-20T10:14:53;101622.91;;;28.20;100.00
59170;BME280;52474;52.236;5.114;2023-07-20T10:17:21;101612.00;;;28.20;100.00
59170;BME280;52474;52.236;5.114;2023-07-20T10:19:49;101618.88;;;27.49;100.00
59170;BME280;52474;52.236;5.114;2023-07-20T10:22:25;101609.06;;;27.66;100.00
59170;BME280;52474;52.236;5.114;2023-07-20T10:24:51;101597.31;;;26.79;100.00
59170;BME280;52474;52.236;5.114;2023-07-20T10:27:23;101606.09;;;27.06;100.00
59170;BME280;52474;52.236;5.114;2023-07-20T10:29:50;101608.31;;;27.15;100.00
59170;BME280;52474;52.236;5.114;2023-07-20T10:32:17;101594.94;;;27.57;100.00
59170;BME280;52474;52.236;5.114;2023-07-20T10:34:42;101606.81;;;27.81;100.00
59170;BME280;52474;52.236;5.114;2023-07-20T10:37:08;101603.38;;;28.23;100.00
59170;BME280;52474;52.236;5.114;2023-07-20T10:39:34;101599.09;;;27.78;100.00
59170;BME280;52474;52.236;5.114;2023-07-20T10:42:06;101590.44;;;27.88;100.00
59170;BME280;52474;52.236;5.114;2023-07-20T10:44:32;101599.97;;;28.27;100.00
59170;BME280;52474;52.236;5.114;2023-07-20T10:47:02;101601.59;;;27.80;100.00
59170;BME280;52474;52.236;5.114;2023-07-20T10:49:28;101602.31;;;27.32;100.00
59170;BME280;52474;52.236;5.114;2023-07-20T10:51:59;101590.09;;;27.16;100.00
59170;BME280;52474;52.236;5.114;2023-07-20T10:56:55;101590.16;;;27.71;100.00
59170;BME280;52474;52.236;5.114;2023-07-20T11:01:56;101585.28;;;26.93;100.00
59170;BME280;52474;52.236;5.114;2023-07-20T11:04:42;101594.75;;;26.84;100.00
59170;BME280;52474;52.236;5.114;2023-07-20T11:07:08;101589.56;;;26.44;100.00
59170;BME280;52474;52.236;5.114;2023-07-20T11:09:35;101590.72;;;26.23;100.00
59170;BME280;52474;52.236;5.114;2023-07-20T11:14:53;101588.44;;;26.58;100.00
59170;BME280;52474;52.236;5.114;2023-07-20T11:17:19;101589.81;;;26.99;100.00
59170;BME280;52474;52.236;5.114;2023-07-20T11:19:48;101586.13;;;26.93;100.00
59170;BME280;52474;52.236;5.114;2023-07-20T11:22:17;101575.56;;;27.29;100.00
59170;BME280;52474;52.236;5.114;2023-07-20T11:24:43;101573.91;;;27.03;100.00
59170;BME280;52474;52.236;5.114;2023-07-20T11:27:08;101574.56;;;26.98;100.00
59170;BME280;52474;52.236;5.114;2023-07-20T11:29:34;101583.81;;;26.65;100.00
59170;BME280;52474;52.236;5.114;2023-07-20T11:32:02;101583.00;;;26.58;100.00
59170;BME280;52474;52.236;5.114;2023-07-20T11:34:30;101586.94;;;26.69;100.00
59170;BME280;52474;52.236;5.114;2023-07-20T11:36:56;101582.81;;;27.10;100.00
59170;BME280;52474;52.236;5.114;2023-07-20T11:39:23;101579.06;;;27.36;100.00
59170;BME280;52474;52.236;5.114;2023-07-20T11:41:55;101562.94;;;28.08;100.00
59170;BME280;52474;52.236;5.114;2023-07-20T11:44:22;101568.50;;;28.01;100.00
59170;BME280;52474;52.236;5.114;2023-07-20T11:47:07;101563.19;;;27.70;100.00
59170;BME280;52474;52.236;5.114;2023-07-20T11:49:38;101570.59;;;27.26;100.00
59170;BME280;52474;52.236;5.114;2023-07-20T11:52:05;101564.31;;;27.80;100.00
59170;BME280;52474;52.236;5.114;2023-07-20T11:54:32;101555.88;;;27.70;100.00
59170;BME280;52474;52.236;5.114;2023-07-20T11:57:01;101553.38;;;27.50;100.00
59170;BME280;52474;52.236;5.114;2023-07-20T11:59:27;101548.47;;;27.40;100.00
59170;BME280;52474;52.236;5.114;2023-07-20T12:01:52;101556.78;;;27.27;100.00
59170;BME280;52474;52.236;5.114;2023-07-20T12:04:18;101539.56;;;27.89;100.00
59170;BME280;52474;52.236;5.114;2023-07-20T12:06:45;101549.09;;;27.17;100.00
59170;BME280;52474;52.236;5.114;2023-07-20T12:09:14;101552.16;;;26.77;100.00
59170;BME280;52474;52.236;5.114;2023-07-20T12:11:43;101548.31;;;27.10;100.00
59170;BME280;52474;52.236;5.114;2023-07-20T12:14:09;101554.97;;;27.95;100.00
59170;BME280;52474;52.236;5.114;2023-07-20T12:16:36;101555.84;;;28.07;100.00
59170;BME280;52474;52.236;5.114;2023-07-20T12:19:08;101549.63;;;28.18;100.00
59170;BME280;52474;52.236;5.114;2023-07-20T12:21:35;101540.41;;;28.31;100.00
59170;BME280;52474;52.236;5.114;2023-07-20T12:24:06;101542.78;;;27.79;100.00
59170;BME280;52474;52.236;5.114;2023-07-20T12:26:33;101551.28;;;27.89;100.00
59170;BME280;52474;52.236;5.114;2023-07-20T12:28:59;101540.06;;;26.98;100.00
59170;BME280;52474;52.236;5.114;2023-07-20T12:31:26;101553.53;;;27.12;100.00
59170;BME280;52474;52.236;5.114;2023-07-20T12:33:53;101535.06;;;27.21;100.00
59170;BME280;52474;52.236;5.114;2023-07-20T12:36:21;101533.00;;;27.16;100.00
59170;BME280;52474;52.236;5.114;2023-07-20T12:38:46;101537.91;;;26.82;100.00
59170;BME280;52474;52.236;5.114;2023-07-20T12:41:13;101545.97;;;27.14;100.00
59170;BME280;52474;52.236;5.114;2023-07-20T12:43:44;101544.75;;;27.53;100.00
59170;BME280;52474;52.236;5.114;2023-07-20T12:46:11;101543.13;;;26.52;100.00
59170;BME280;52474;52.236;5.114;2023-07-20T12:48:39;101531.31;;;26.40;100.00
59170;BME280;52474;52.236;5.114;2023-07-20T12:51:06;101532.06;;;26.22;100.00
59170;BME280;52474;52.236;5.114;2023-07-20T12:53:33;101531.28;;;26.08;100.00